sensor_id;sensor_type;location;lat;lon;timestamp;pressure;altitude;pressure_sealevel;temperature;humidity
23899;BME280;20544;50.018;20.010;2023-05-03T00:00:01;99446.15;;;11.63;100.00
23899;BME280;20544;50.018;20.010;2023-05-03T00:03:23;99446.51;;;11.60;100.00
23899;BME280;20544;50.018;20.010;2023-05-03T00:06:40;99444.36;;;11.56;100.00
23899;BME280;20544;50.018;20.010;2023-05-03T00:09:58;99439.35;;;11.61;100.00
23899;BME280;20544;50.018;20.010;2023-05-03T00:13:14;99441.34;;;11.59;100.00
23899;BME280;20544;50.018;20.010;2023-05-03T00:16:31;99440.20;;;11.61;100.00
23899;BME280;20544;50.018;20.010;2023-05-03T00:19:55;99437.87;;;11.58;100.00
23899;BME280;20544;50.018;20.010;2023-05-03T00:23:13;99431.08;;;11.56;100.00
23899;BME280;20544;50.018;20.010;2023-05-03T00:26:30;99427.23;;;11.58;100.00
23899;BME280;20544;50.018;20.010;2023-05-03T00:29:48;99432.73;;;11.57;100.00
23899;BME280;20544;50.018;20.010;2023-05-03T00:33:05;99428.59;;;11.54;100.00
23899;BME280;20544;50.018;20.010;2023-05-03T00:36:21;99428.59;;;11.54;100.00
23899;BME280;20544;50.018;20.010;2023-05-03T00:39:37;99433.93;;;11.46;100.00
23899;BME280;20544;50.018;20.010;2023-05-03T00:42:54;99430.45;;;11.45;100.00
23899;BME280;20544;50.018;20.010;2023-05-03T00:46:11;99426.47;;;11.41;100.00
23899;BME280;20544;50.018;20.010;2023-05-03T00:49:28;99431.78;;;11.41;100.00
23899;BME280;20544;50.018;20.010;2023-05-03T00:52:44;99425.66;;;11.41;100.00
23899;BME280;20544;50.018;20.010;2023-05-03T00:56:02;99431.45;;;11.44;100.00
23899;BME280;20544;50.018;20.010;2023-05-03T00:59:21;99431.14;;;11.39;100.00
23899;BME280;20544;50.018;20.010;2023-05-03T01:02:43;99434.81;;;11.30;100.00
23899;BME280;20544;50.018;20.010;2023-05-03T01:06:06;99437.33;;;11.23;100.00
23899;BME280;20544;50.018;20.010;2023-05-03T01:09:30;99439.31;;;11.21;100.00
23899;BME280;20544;50.018;20.010;2023-05-03T01:12:52;99441.95;;;11.29;100.00
23899;BME280;20544;50.018;20.010;2023-05-03T01:16:17;99438.13;;;11.32;100.00
23899;BME280;20544;50.018;20.010;2023-05-03T01:19:40;99444.44;;;11.31;100.00
23899;BME280;20544;50.018;20.010;2023-05-03T01:23:04;99439.63;;;11.26;100.00
23899;BME280;20544;50.018;20.010;2023-05-03T01:26:23;99434.99;;;11.20;100.00
23899;BME280;20544;50.018;20.010;2023-05-03T01:29:41;99439.35;;;11.13;100.00
23899;BME280;20544;50.018;20.010;2023-05-03T01:33:02;99437.20;;;11.08;100.00
23899;BME280;20544;50.018;20.010;2023-05-03T01:36:24;99443.67;;;11.06;100.00
23899;BME280;20544;50.018;20.010;2023-05-03T01:39:47;99438.69;;;11.03;100.00
23899;BME280;20544;50.018;20.010;2023-05-03T01:43:05;99438.69;;;11.03;100.00
23899;BME280;20544;50.018;20.010;2023-05-03T01:46:22;99436.20;;;11.01;100.00
23899;BME280;20544;50.018;20.010;2023-05-03T01:49:41;99444.66;;;11.05;100.00
23899;BME280;20544;50.018;20.010;2023-05-03T01:53:00;99434.86;;;11.05;100.00
23899;BME280;20544;50.018;20.010;2023-05-03T01:56:16;99439.71;;;11.02;100.00
23899;BME280;20544;50.018;20.010;2023-05-03T01:59:34;99440.34;;;11.12;100.00
23899;BME280;20544;50.018;20.010;2023-05-03T02:02:50;99437.19;;;11.16;100.00
23899;BME280;20544;50.018;20.010;2023-05-03T02:06:07;99430.22;;;11.15;100.00
23899;BME280;20544;50.018;20.010;2023-05-03T02:09:25;99437.19;;;11.16;100.00
23899;BME280;20544;50.018;20.010;2023-05-03T02:12:41;99434.68;;;11.15;100.00
23899;BME280;20544;50.018;20.010;2023-05-03T02:15:58;99442.16;;;11.11;100.00
23899;BME280;20544;50.018;20.010;2023-05-03T02:19:14;99437.20;;;11.08;100.00
23899;BME280;20544;50.018;20.010;2023-05-03T02:22:31;99446.50;;;11.04;100.00
23899;BME280;20544;50.018;20.010;2023-05-03T02:25:47;99448.81;;;10.99;100.00
23899;BME280;20544;50.018;20.010;2023-05-03T02:29:03;99440.70;;;11.00;100.00
23899;BME280;20544;50.018;20.010;2023-05-03T02:32:20;99443.67;;;11.06;100.00
23899;BME280;20544;50.018;20.010;2023-05-03T02:35:37;99439.67;;;11.10;100.00
23899;BME280;20544;50.018;20.010;2023-05-03T02:38:53;99441.16;;;11.12;100.00
23899;BME280;20544;50.018;20.010;2023-05-03T02:42:09;99437.69;;;11.12;100.00
23899;BME280;20544;50.018;20.010;2023-05-03T02:45:26;99439.85;;;11.08;100.00
23899;BME280;20544;50.018;20.010;2023-05-03T02:48:43;99448.63;;;11.09;100.00
23899;BME280;20544;50.018;20.010;2023-05-03T02:52:00;99445.83;;;11.10;100.00
23899;BME280;20544;50.018;20.010;2023-05-03T02:55:17;99433.70;;;11.08;100.00
23899;BME280;20544;50.018;20.010;2023-05-03T02:58:33;99442.33;;;11.10;100.00
23899;BME280;20544;50.018;20.010;2023-05-03T03:01:50;99446.16;;;11.07;100.00
23899;BME280;20544;50.018;20.010;2023-05-03T03:05:08;99446.82;;;11.09;100.00
23899;BME280;20544;50.018;20.010;2023-05-03T03:08:26;99449.80;;;11.06;100.00
23899;BME280;20544;50.018;20.010;2023-05-03T03:11:43;99444.48;;;11.06;100.00
23899;BME280;20544;50.018;20.010;2023-05-03T03:15:00;99452.28;;;11.08;100.00
23899;BME280;20544;50.018;20.010;2023-05-03T03:18:17;99443.32;;;11.09;100.00
23899;BME280;20544;50.018;20.010;2023-05-03T03:21:34;99445.33;;;11.07;100.00
23899;BME280;20544;50.018;20.010;2023-05-03T03:24:51;99447.14;;;11.06;100.00
23899;BME280;20544;50.018;20.010;2023-05-03T03:28:07;99447.14;;;11.06;100.00
23899;BME280;20544;50.018;20.010;2023-05-03T03:31:24;99447.14;;;11.06;100.00
23899;BME280;20544;50.018;20.010;2023-05-03T03:34:41;99459.77;;;11.04;100.00
23899;BME280;20544;50.018;20.010;2023-05-03T03:37:58;99448.80;;;11.07;100.00
23899;BME280;20544;50.018;20.010;2023-05-03T03:41:15;99456.27;;;11.12;100.00
23899;BME280;20544;50.018;20.010;2023-05-03T03:44:32;99452.63;;;11.13;100.00
23899;BME280;20544;50.018;20.010;2023-05-03T03:47:49;99460.23;;;11.16;100.00
23899;BME280;20544;50.018;20.010;2023-05-03T03:51:06;99458.89;;;11.20;100.00
23899;BME280;20544;50.018;20.010;2023-05-03T03:54:24;99463.70;;;11.25;100.00
23899;BME280;20544;50.018;20.010;2023-05-03T03:57:41;99464.20;;;11.28;100.00
23899;BME280;20544;50.018;20.010;2023-05-03T04:00:58;99463.02;;;11.31;100.00
23899;BME280;20544;50.018;20.010;2023-05-03T04:04:16;99469.51;;;11.28;100.00
23899;BME280;20544;50.018;20.010;2023-05-03T04:07:33;99467.03;;;11.27;100.00
23899;BME280;20544;50.018;20.010;2023-05-03T04:10:50;99469.51;;;11.28;100.00
23899;BME280;20544;50.018;20.010;2023-05-03T04:14:06;99480.80;;;11.30;100.00
23899;BME280;20544;50.018;20.010;2023-05-03T04:17:24;99476.97;;;11.33;100.00
23899;BME280;20544;50.018;20.010;2023-05-03T04:20:45;99478.64;;;11.34;100.00
23899;BME280;20544;50.018;20.010;2023-05-03T04:24:05;99474.14;;;11.35;100.00
23899;BME280;20544;50.018;20.010;2023-05-03T04:27:23;99483.77;;;11.36;100.00
23899;BME280;20544;50.018;20.010;2023-05-03T04:30:40;99485.26;;;11.38;100.00
23899;BME280;20544;50.018;20.010;2023-05-03T04:33:59;99487.73;;;11.40;100.00
23899;BME280;20544;50.018;20.010;2023-05-03T04:37:18;99500.38;;;11.38;100.00
23899;BME280;20544;50.018;20.010;2023-05-03T04:40:35;99496.88;;;11.37;100.00
23899;BME280;20544;50.018;20.010;2023-05-03T04:43:52;99499.53;;;11.37;100.00
23899;BME280;20544;50.018;20.010;2023-05-03T04:47:08;99512.31;;;11.33;100.00
23899;BME280;20544;50.018;20.010;2023-05-03T04:50:26;99503.36;;;11.35;100.00
23899;BME280;20544;50.018;20.010;2023-05-03T04:53:43;99500.03;;;11.32;100.00
23899;BME280;20544;50.018;20.010;2023-05-03T04:57:00;99506.36;;;11.31;100.00
23899;BME280;20544;50.018;20.010;2023-05-03T05:00:19;99508.66;;;11.35;100.00
23899;BME280;20544;50.018;20.010;2023-05-03T05:03:37;99511.00;;;11.38;100.00
23899;BME280;20544;50.018;20.010;2023-05-03T05:06:55;99514.97;;;11.42;100.00
23899;BME280;20544;50.018;20.010;2023-05-03T05:10:13;99524.91;;;11.48;100.00
23899;BME280;20544;50.018;20.010;2023-05-03T05:13:30;99525.09;;;11.46;100.00
23899;BME280;20544;50.018;20.010;2023-05-03T05:16:46;99533.70;;;11.48;100.00
23899;BME280;20544;50.018;20.010;2023-05-03T05:20:04;99534.69;;;11.47;100.00
23899;BME280;20544;50.018;20.010;2023-05-03T05:23:26;99541.84;;;11.47;100.00
23899;BME280;20544;50.018;20.010;2023-05-03T05:26:44;99542.34;;;11.42;100.00
23899;BME280;20544;50.018;20.010;2023-05-03T05:30:00;99535.37;;;11.41;100.00
23899;BME280;20544;50.018;20.010;2023-05-03T05:33:19;99541.70;;;11.40;100.00
23899;BME280;20544;50.018;20.010;2023-05-03T05:36:37;99543.83;;;11.45;100.00
23899;BME280;20544;50.018;20.010;2023-05-03T05:39:56;99540.86;;;11.40;100.00
23899;BME280;20544;50.018;20.010;2023-05-03T05:43:13;99545.67;;;11.36;100.00
23899;BME280;20544;50.018;20.010;2023-05-03T05:46:29;99555.30;;;11.37;100.00
23899;BME280;20544;50.018;20.010;2023-05-03T05:49:47;99546.66;;;11.35;100.00
23899;BME280;20544;50.018;20.010;2023-05-03T05:53:03;99559.97;;;11.27;100.00
23899;BME280;20544;50.018;20.010;2023-05-03T05:56:21;99559.30;;;11.33;100.00
23899;BME280;20544;50.018;20.010;2023-05-03T05:59:38;99553.14;;;11.32;100.00
23899;BME280;20544;50.018;20.010;2023-05-03T06:02:54;99565.75;;;11.39;100.00
23899;BME280;20544;50.018;20.010;2023-05-03T06:06:11;99560.94;;;11.42;100.00
23899;BME280;20544;50.018;20.010;2023-05-03T06:09:28;99573.90;;;11.37;100.00
23899;BME280;20544;50.018;20.010;2023-05-03T06:12:44;99572.91;;;11.38;100.00
23899;BME280;20544;50.018;20.010;2023-05-03T06:16:02;99571.06;;;11.39;100.00
23899;BME280;20544;50.018;20.010;2023-05-03T06:19:19;99568.94;;;11.34;100.00
23899;BME280;20544;50.018;20.010;2023-05-03T06:22:37;99573.08;;;11.37;100.00
23899;BME280;20544;50.018;20.010;2023-05-03T06:25:53;99578.05;;;11.40;100.00
23899;BME280;20544;50.018;20.010;2023-05-03T06:29:10;99577.22;;;11.39;100.00
23899;BME280;20544;50.018;20.010;2023-05-03T06:32:28;99584.84;;;11.42;100.00
23899;BME280;20544;50.018;20.010;2023-05-03T06:35:46;99588.17;;;11.44;100.00
23899;BME280;20544;50.018;20.010;2023-05-03T06:39:02;99592.14;;;11.48;100.00
23899;BME280;20544;50.018;20.010;2023-05-03T06:42:19;99588.67;;;11.48;100.00
23899;BME280;20544;50.018;20.010;2023-05-03T06:45:46;99598.30;;;11.49;100.00
23899;BME280;20544;50.018;20.010;2023-05-03T06:49:04;99597.95;;;11.52;100.00
23899;BME280;20544;50.018;20.010;2023-05-03T06:52:20;99597.95;;;11.52;100.00
23899;BME280;20544;50.018;20.010;2023-05-03T06:55:37;99600.61;;;11.52;100.00
23899;BME280;20544;50.018;20.010;2023-05-03T06:58:54;99595.30;;;11.52;100.00
23899;BME280;20544;50.018;20.010;2023-05-03T07:02:10;99594.48;;;11.52;100.00
23899;BME280;20544;50.018;20.010;2023-05-03T07:05:27;99604.43;;;11.49;100.00
23899;BME280;20544;50.018;20.010;2023-05-03T07:08:43;99609.75;;;11.49;100.00
23899;BME280;20544;50.018;20.010;2023-05-03T07:12:00;99604.11;;;11.53;100.00
23899;BME280;20544;50.018;20.010;2023-05-03T07:15:18;99620.70;;;11.55;100.00
23899;BME280;20544;50.018;20.010;2023-05-03T07:18:35;99614.73;;;11.53;100.00
23899;BME280;20544;50.018;20.010;2023-05-03T07:21:53;99611.91;;;11.54;100.00
23899;BME280;20544;50.018;20.010;2023-05-03T07:25:11;99612.72;;;11.55;100.00
23899;BME280;20544;50.018;20.010;2023-05-03T07:28:29;99616.05;;;11.57;100.00
23899;BME280;20544;50.018;20.010;2023-05-03T07:31:45;99617.86;;;11.56;100.00
23899;BME280;20544;50.018;20.010;2023-05-03T07:35:02;99626.67;;;11.48;100.00
23899;BME280;20544;50.018;20.010;2023-05-03T07:38:20;99625.02;;;11.47;100.00
23899;BME280;20544;50.018;20.010;2023-05-03T07:41:36;99624.02;;;11.48;100.00
23899;BME280;20544;50.018;20.010;2023-05-03T07:44:53;99637.63;;;11.54;100.00
23899;BME280;20544;50.018;20.010;2023-05-03T07:48:09;99627.52;;;11.49;100.00
23899;BME280;20544;50.018;20.010;2023-05-03T07:51:26;99637.30;;;11.48;100.00
23899;BME280;20544;50.018;20.010;2023-05-03T07:54:44;99637.80;;;11.52;100.00
23899;BME280;20544;50.018;20.010;2023-05-03T07:58:00;99639.47;;;11.53;100.00
23899;BME280;20544;50.018;20.010;2023-05-03T08:01:19;99633.98;;;11.55;100.00
23899;BME280;20544;50.018;20.010;2023-05-03T08:04:35;99639.13;;;11.64;100.00
23899;BME280;20544;50.018;20.010;2023-05-03T08:07:54;99644.12;;;11.68;100.00
23899;BME280;20544;50.018;20.010;2023-05-03T08:11:12;99648.58;;;11.75;100.00
23899;BME280;20544;50.018;20.010;2023-05-03T08:14:28;99643.59;;;11.80;100.00
23899;BME280;20544;50.018;20.010;2023-05-03T08:17:46;99645.75;;;11.85;100.00
23899;BME280;20544;50.018;20.010;2023-05-03T08:21:02;99650.53;;;11.90;100.00
23899;BME280;20544;50.018;20.010;2023-05-03T08:24:24;99647.38;;;11.86;100.00
23899;BME280;20544;50.018;20.010;2023-05-03T08:27:40;99649.54;;;11.91;100.00
23899;BME280;20544;50.018;20.010;2023-05-03T08:31:01;99653.52;;;11.95;100.00
23899;BME280;20544;50.018;20.010;2023-05-03T08:34:18;99646.91;;;11.99;100.00
23899;BME280;20544;50.018;20.010;2023-05-03T08:37:40;99647.91;;;11.98;100.00
23899;BME280;20544;50.018;20.010;2023-05-03T08:41:03;99658.67;;;12.05;100.00
23899;BME280;20544;50.018;20.010;2023-05-03T08:44:42;99665.97;;;12.11;100.00
23899;BME280;20544;50.018;20.010;2023-05-03T08:47:59;99662.98;;;12.14;100.00
23899;BME280;20544;50.018;20.010;2023-05-03T08:51:17;99661.46;;;12.20;100.00
23899;BME280;20544;50.018;20.010;2023-05-03T08:54:38;99667.77;;;12.27;100.00
23899;BME280;20544;50.018;20.010;2023-05-03T08:57:55;99667.92;;;12.34;100.00
23899;BME280;20544;50.018;20.010;2023-05-03T09:01:12;99675.36;;;12.38;100.00
23899;BME280;20544;50.018;20.010;2023-05-03T09:04:34;99671.70;;;12.39;100.00
23899;BME280;20544;50.018;20.010;2023-05-03T09:08:03;99670.36;;;12.43;100.00
23899;BME280;20544;50.018;20.010;2023-05-03T09:11:26;99673.17;;;12.50;100.00
23899;BME280;20544;50.018;20.010;2023-05-03T09:14:45;99674.68;;;12.44;100.00
23899;BME280;20544;50.018;20.010;2023-05-03T09:18:13;99674.73;;;12.36;100.00
23899;BME280;20544;50.018;20.010;2023-05-03T09:21:31;99678.20;;;12.37;100.00
23899;BME280;20544;50.018;20.010;2023-05-03T09:24:54;99678.03;;;12.38;100.00
23899;BME280;20544;50.018;20.010;2023-05-03T09:28:12;99681.53;;;12.39;100.00
23899;BME280;20544;50.018;20.010;2023-05-03T09:31:31;99682.53;;;12.38;100.00
23899;BME280;20544;50.018;20.010;2023-05-03T09:34:52;99678.52;;;12.42;100.00
23899;BME280;20544;50.018;20.010;2023-05-03T09:38:18;99680.31;;;12.50;100.00
23899;BME280;20544;50.018;20.010;2023-05-03T09:41:40;99685.59;;;12.66;100.00
23899;BME280;20544;50.018;20.010;2023-05-03T09:44:59;99682.23;;;12.72;100.00
23899;BME280;20544;50.018;20.010;2023-05-03T09:48:21;99687.01;;;12.77;100.00
23899;BME280;20544;50.018;20.010;2023-05-03T09:51:41;99683.53;;;12.76;100.00
23899;BME280;20544;50.018;20.010;2023-05-03T09:55:08;99686.02;;;12.78;100.00
23899;BME280;20544;50.018;20.010;2023-05-03T09:58:25;99688.67;;;12.78;100.00
23899;BME280;20544;50.018;20.010;2023-05-03T10:01:44;99690.03;;;12.74;100.00
23899;BME280;20544;50.018;20.010;2023-05-03T10:05:01;99682.08;;;12.66;100.00
23899;BME280;20544;50.018;20.010;2023-05-03T10:08:24;99686.22;;;12.68;100.00
23899;BME280;20544;50.018;20.010;2023-05-03T10:11:42;99683.92;;;12.65;100.00
23899;BME280;20544;50.018;20.010;2023-05-03T10:15:03;99683.73;;;12.67;100.00
23899;BME280;20544;50.018;20.010;2023-05-03T10:18:22;99685.89;;;12.71;100.00
23899;BME280;20544;50.018;20.010;2023-05-03T10:21:53;99682.87;;;12.74;100.00
23899;BME280;20544;50.018;20.010;2023-05-03T10:25:12;99676.03;;;12.80;100.00
23899;BME280;20544;50.018;20.010;2023-05-03T10:28:29;99670.22;;;12.76;100.00
23899;BME280;20544;50.018;20.010;2023-05-03T10:31:48;99680.98;;;12.83;100.00
23899;BME280;20544;50.018;20.010;2023-05-03T10:35:08;99682.17;;;12.81;100.00
23899;BME280;20544;50.018;20.010;2023-05-03T10:38:27;99684.50;;;12.84;100.00
23899;BME280;20544;50.018;20.010;2023-05-03T10:41:57;99685.31;;;12.84;100.00
23899;BME280;20544;50.018;20.010;2023-05-03T10:45:24;99684.83;;;12.81;100.00
23899;BME280;20544;50.018;20.010;2023-05-03T10:48:45;99690.67;;;12.76;100.00
23899;BME280;20544;50.018;20.010;2023-05-03T10:52:06;99694.00;;;12.78;100.00
23899;BME280;20544;50.018;20.010;2023-05-03T10:55:35;99688.19;;;12.74;100.00
23899;BME280;20544;50.018;20.010;2023-05-03T10:58:57;99694.18;;;12.76;100.00
23899;BME280;20544;50.018;20.010;2023-05-03T11:02:15;99694.36;;;12.75;100.00
23899;BME280;20544;50.018;20.010;2023-05-03T11:05:34;99687.91;;;12.61;100.00
23899;BME280;20544;50.018;20.010;2023-05-03T11:08:53;99697.41;;;12.64;100.00
23899;BME280;20544;50.018;20.010;2023-05-03T11:12:16;99698.61;;;12.53;100.00
23899;BME280;20544;50.018;20.010;2023-05-03T11:15:33;99696.14;;;12.43;100.00
23899;BME280;20544;50.018;20.010;2023-05-03T11:18:53;99691.51;;;12.37;100.00
23899;BME280;20544;50.018;20.010;2023-05-03T11:22:13;99695.03;;;12.29;100.00
23899;BME280;20544;50.018;20.010;2023-05-03T11:25:30;99687.25;;;12.11;100.00
23899;BME280;20544;50.018;20.010;2023-05-03T11:28:47;99687.11;;;12.04;100.00
23899;BME280;20544;50.018;20.010;2023-05-03T11:32:08;99693.42;;;12.03;100.00
23899;BME280;20544;50.018;20.010;2023-05-03T11:35:29;99697.89;;;11.94;100.00
23899;BME280;20544;50.018;20.010;2023-05-03T11:38:50;99696.05;;;11.95;100.00
23899;BME280;20544;50.018;20.010;2023-05-03T11:42:04;99694.59;;;12.01;100.00
23899;BME280;20544;50.018;20.010;2023-05-03T11:45:27;99696.58;;;11.98;100.00
23899;BME280;20544;50.018;20.010;2023-05-03T11:48:46;99695.94;;;11.96;100.00
23899;BME280;20544;50.018;20.010;2023-05-03T11:52:04;99699.23;;;11.90;100.00
23899;BME280;20544;50.018;20.010;2023-05-03T11:55:23;99702.21;;;11.95;100.00
23899;BME280;20544;50.018;20.010;2023-05-03T11:58:51;99702.56;;;12.01;100.00
23899;BME280;20544;50.018;20.010;2023-05-03T12:02:10;99704.73;;;12.05;100.00
23899;BME280;20544;50.018;20.010;2023-05-03T12:05:26;99702.38;;;12.10;100.00
23899;BME280;20544;50.018;20.010;2023-05-03T12:08:42;99698.88;;;12.10;100.00
23899;BME280;20544;50.018;20.010;2023-05-03T12:12:00;99700.89;;;12.00;100.00
23899;BME280;20544;50.018;20.010;2023-05-03T12:15:27;99697.07;;;12.02;100.00
23899;BME280;20544;50.018;20.010;2023-05-03T12:18:49;99685.27;;;12.05;100.00
23899;BME280;20544;50.018;20.010;2023-05-03T12:22:19;99694.91;;;12.06;100.00
23899;BME280;20544;50.018;20.010;2023-05-03T12:25:38;99695.75;;;12.06;100.00
23899;BME280;20544;50.018;20.010;2023-05-03T12:28:56;99700.22;;;12.06;100.00
23899;BME280;20544;50.018;20.010;2023-05-03T12:32:14;99694.91;;;12.06;100.00
23899;BME280;20544;50.018;20.010;2023-05-03T12:35:30;99686.11;;;12.05;100.00
23899;BME280;20544;50.018;20.010;2023-05-03T12:38:48;99688.59;;;12.07;100.00
23899;BME280;20544;50.018;20.010;2023-05-03T12:42:07;99689.58;;;12.14;100.00
23899;BME280;20544;50.018;20.010;2023-05-03T12:45:25;99695.89;;;12.13;100.00
23899;BME280;20544;50.018;20.010;2023-05-03T12:48:42;99695.89;;;12.13;100.00
23899;BME280;20544;50.018;20.010;2023-05-03T12:52:01;99691.25;;;12.07;100.00
23899;BME280;20544;50.018;20.010;2023-05-03T12:55:19;99691.75;;;12.10;100.00
23899;BME280;20544;50.018;20.010;2023-05-03T12:58:38;99695.08;;;12.12;100.00
23899;BME280;20544;50.018;20.010;2023-05-03T13:01:59;99684.94;;;12.08;100.00
23899;BME280;20544;50.018;20.010;2023-05-03T13:05:18;99686.29;;;12.04;100.00
23899;BME280;20544;50.018;20.010;2023-05-03T13:08:37;99691.26;;;11.98;100.00
23899;BME280;20544;50.018;20.010;2023-05-03T13:11:56;99686.12;;;11.97;100.00
23899;BME280;20544;50.018;20.010;2023-05-03T13:15:13;99683.78;;;11.94;100.00
23899;BME280;20544;50.018;20.010;2023-05-03T13:21:49;99684.95;;;11.83;100.00
23899;BME280;20544;50.018;20.010;2023-05-03T13:25:12;99686.44;;;11.86;100.00
23899;BME280;20544;50.018;20.010;2023-05-03T13:28:29;99684.13;;;11.83;100.00
23899;BME280;20544;50.018;20.010;2023-05-03T13:31:45;99680.80;;;11.72;100.00
23899;BME280;20544;50.018;20.010;2023-05-03T13:35:02;99686.96;;;11.73;100.00
23899;BME280;20544;50.018;20.010;2023-05-03T13:38:20;99683.13;;;11.75;100.00
23899;BME280;20544;50.018;20.010;2023-05-03T13:41:37;99681.97;;;11.78;100.00
23899;BME280;20544;50.018;20.010;2023-05-03T13:44:55;99684.63;;;11.78;100.00
23899;BME280;20544;50.018;20.010;2023-05-03T13:48:11;99672.82;;;11.72;100.00
23899;BME280;20544;50.018;20.010;2023-05-03T13:51:28;99676.97;;;11.75;100.00
23899;BME280;20544;50.018;20.010;2023-05-03T13:54:45;99679.13;;;11.79;100.00
23899;BME280;20544;50.018;20.010;2023-05-03T13:58:02;99683.63;;;11.79;100.00
23899;BME280;20544;50.018;20.010;2023-05-03T14:01:19;99675.48;;;11.80;100.00
23899;BME280;20544;50.018;20.010;2023-05-03T14:04:35;99675.16;;;11.75;100.00
23899;BME280;20544;50.018;20.010;2023-05-03T14:07:52;99675.48;;;11.72;100.00
23899;BME280;20544;50.018;20.010;2023-05-03T14:11:15;99664.54;;;11.51;100.00
23899;BME280;20544;50.018;20.010;2023-05-03T14:14:33;99675.15;;;11.59;100.00
23899;BME280;20544;50.018;20.010;2023-05-03T14:17:49;99673.66;;;11.64;100.00
23899;BME280;20544;50.018;20.010;2023-05-03T14:21:08;99676.32;;;11.64;100.00
23899;BME280;20544;50.018;20.010;2023-05-03T14:24:26;99679.48;;;11.52;100.00
23899;BME280;20544;50.018;20.010;2023-05-03T14:27:43;99677.45;;;11.12;100.00
23899;BME280;20544;50.018;20.010;2023-05-03T14:31:00;99687.11;;;11.22;100.00
23899;BME280;20544;50.018;20.010;2023-05-03T14:34:18;99681.47;;;11.33;100.00
23899;BME280;20544;50.018;20.010;2023-05-03T14:37:34;99677.30;;;11.22;100.00
23899;BME280;20544;50.018;20.010;2023-05-03T14:40:52;99675.63;;;11.21;100.00
23899;BME280;20544;50.018;20.010;2023-05-03T14:44:09;99674.14;;;11.19;100.00
23899;BME280;20544;50.018;20.010;2023-05-03T14:47:29;99677.63;;;11.27;100.00
23899;BME280;20544;50.018;20.010;2023-05-03T14:50:54;99686.61;;;11.35;100.00
23899;BME280;20544;50.018;20.010;2023-05-03T14:54:16;99687.25;;;11.20;100.00
23899;BME280;20544;50.018;20.010;2023-05-03T14:57:36;99685.95;;;11.24;100.00
23899;BME280;20544;50.018;20.010;2023-05-03T15:00:53;99681.46;;;11.16;100.00
23899;BME280;20544;50.018;20.010;2023-05-03T15:04:17;99685.44;;;11.21;100.00
23899;BME280;20544;50.018;20.010;2023-05-03T15:07:40;99685.11;;;11.15;100.00
23899;BME280;20544;50.018;20.010;2023-05-03T15:10:58;99679.12;;;11.13;100.00
23899;BME280;20544;50.018;20.010;2023-05-03T15:14:18;99682.11;;;11.10;100.00
23899;BME280;20544;50.018;20.010;2023-05-03T15:17:37;99684.42;;;11.13;100.00
23899;BME280;20544;50.018;20.010;2023-05-03T15:20:57;99690.41;;;11.24;100.00
23899;BME280;20544;50.018;20.010;2023-05-03T15:24:17;99681.98;;;11.37;100.00
23899;BME280;20544;50.018;20.010;2023-05-03T15:27:35;99684.28;;;11.40;100.00
23899;BME280;20544;50.018;20.010;2023-05-03T15:30:52;99685.61;;;11.44;100.00
23899;BME280;20544;50.018;20.010;2023-05-03T15:34:14;99696.73;;;11.47;100.00
23899;BME280;20544;50.018;20.010;2023-05-03T15:37:36;99688.08;;;11.29;100.00
23899;BME280;20544;50.018;20.010;2023-05-03T15:40:55;99693.08;;;11.32;100.00
23899;BME280;20544;50.018;20.010;2023-05-03T15:44:15;99683.95;;;11.35;100.00
23899;BME280;20544;50.018;20.010;2023-05-03T15:47:32;99686.45;;;11.44;100.00
23899;BME280;20544;50.018;20.010;2023-05-03T15:50:50;99685.97;;;11.49;100.00
23899;BME280;20544;50.018;20.010;2023-05-03T15:54:13;99685.61;;;11.44;100.00
23899;BME280;20544;50.018;20.010;2023-05-03T15:57:32;99688.11;;;11.54;100.00
23899;BME280;20544;50.018;20.010;2023-05-03T16:00:49;99688.78;;;11.56;100.00
23899;BME280;20544;50.018;20.010;2023-05-03T16:04:07;99680.97;;;11.46;100.00
23899;BME280;20544;50.018;20.010;2023-05-03T16:07:28;99681.47;;;11.33;100.00
23899;BME280;20544;50.018;20.010;2023-05-03T16:10:47;99682.63;;;11.30;100.00
23899;BME280;20544;50.018;20.010;2023-05-03T16:14:04;99672.16;;;11.29;100.00
23899;BME280;20544;50.018;20.010;2023-05-03T16:17:22;99674.80;;;11.12;100.00
23899;BME280;20544;50.018;20.010;2023-05-03T16:20:40;99671.97;;;11.06;100.00
23899;BME280;20544;50.018;20.010;2023-05-03T16:23:56;99679.63;;;11.17;100.00
23899;BME280;20544;50.018;20.010;2023-05-03T16:27:13;99669.31;;;11.14;100.00
23899;BME280;20544;50.018;20.010;2023-05-03T16:30:33;99672.29;;;10.94;100.00
23899;BME280;20544;50.018;20.010;2023-05-03T16:33:53;99672.63;;;10.99;100.00
23899;BME280;20544;50.018;20.010;2023-05-03T16:37:08;99680.78;;;11.14;100.00
23899;BME280;20544;50.018;20.010;2023-05-03T16:40:25;99679.09;;;11.05;100.00
23899;BME280;20544;50.018;20.010;2023-05-03T16:43:41;99681.60;;;11.15;100.00
23899;BME280;20544;50.018;20.010;2023-05-03T16:47:00;99685.92;;;11.16;100.00
23899;BME280;20544;50.018;20.010;2023-05-03T16:50:18;99685.08;;;11.07;100.00
23899;BME280;20544;50.018;20.010;2023-05-03T16:53:35;99685.25;;;11.14;100.00
23899;BME280;20544;50.018;20.010;2023-05-03T16:56:52;99686.23;;;11.05;100.00
23899;BME280;20544;50.018;20.010;2023-05-03T17:00:12;99687.23;;;11.04;100.00
23899;BME280;20544;50.018;20.010;2023-05-03T17:03:30;99676.80;;;11.10;100.00
23899;BME280;20544;50.018;20.010;2023-05-03T17:06:47;99685.08;;;11.07;100.00